Time;durP1;ratioP1;P1;durP2;ratioP2;P2;SDS_P1;SDS_P2;PMS_P1;PMS_P2;Temp;Humidity;BMP_temperature;BMP_pressure;BME280_temperature;BME280_humidity;BME280_pressure;Samples;Min_cycle;Max_cycle;Signal;HPM_P1;HPM_P2
2022/07/18 00:01:50;;;;;;;11.43;7.32;;;;;;;;;;5031817;28;20288;-69
2022/07/18 00:04:16;;;;;;;13.43;7.35;;;;;;;;;;5012115;28;20665;-68
2022/07/18 00:06:41;;;;;;;12.57;7.63;;;;;;;;;;5035468;28;20609;-69
2022/07/18 00:09:06;;;;;;;10.75;6.47;;;;;;;;;;5031845;28;20291;-68
2022/07/18 00:11:32;;;;;;;12.85;7.10;;;;;;;;;;5035068;28;20173;-68
2022/07/18 00:13:57;;;;;;;16.48;8.48;;;;;;;;;;5014079;28;20260;-69
2022/07/18 00:16:23;;;;;;;11.88;7.55;;;;;;;;;;5021391;28;20271;-68
2022/07/18 00:18:49;;;;;;;15.45;7.57;;;;;;;;;;5025071;28;20284;-68
2022/07/18 00:21:15;;;;;;;13.98;8.43;;;;;;;;;;5032231;28;20193;-68
2022/07/18 00:23:40;;;;;;;12.38;7.40;;;;;;;;;;5034821;28;20630;-68
2022/07/18 00:26:05;;;;;;;14.30;7.40;;;;;;;;;;5038046;28;20776;-67
2022/07/18 00:28:31;;;;;;;10.85;7.05;;;;;;;;;;5034304;28;20189;-68
2022/07/18 00:30:56;;;;;;;12.20;7.07;;;;;;;;;;5023393;28;20462;-69
2022/07/18 00:33:22;;;;;;;13.63;8.32;;;;;;;;;;5028002;28;20241;-69
2022/07/18 00:35:48;;;;;;;12.80;7.78;;;;;;;;;;5031183;28;20517;-69
2022/07/18 00:38:13;;;;;;;14.30;7.75;;;;;;;;;;5018476;28;20178;-68
2022/07/18 00:40:38;;;;;;;12.48;7.82;;;;;;;;;;5018447;28;20201;-68
2022/07/18 00:43:04;;;;;;;12.63;7.50;;;;;;;;;;5026977;28;20178;-68
2022/07/18 00:45:29;;;;;;;13.73;8.13;;;;;;;;;;5017855;28;20260;-69
2022/07/18 00:47:55;;;;;;;12.98;8.18;;;;;;;;;;5032063;28;20260;-69
2022/07/18 00:50:22;;;;;;;13.63;8.27;;;;;;;;;;5042319;28;20205;-68
2022/07/18 00:52:47;;;;;;;14.98;8.77;;;;;;;;;;5014082;28;20242;-68
2022/07/18 00:55:13;;;;;;;14.10;8.23;;;;;;;;;;5039261;28;20239;-68
2022/07/18 00:57:39;;;;;;;13.02;8.25;;;;;;;;;;5020813;28;20185;-69
2022/07/18 01:02:52;;;;;;;12.90;8.35;;;;;;;;;;5030406;28;20196;-68
2022/07/18 01:05:17;;;;;;;14.98;8.30;;;;;;;;;;5045240;28;20180;-68
2022/07/18 01:07:43;;;;;;;14.50;8.52;;;;;;;;;;5025929;28;20565;-68
2022/07/18 01:10:08;;;;;;;14.45;8.30;;;;;;;;;;5010100;28;20218;-68
2022/07/18 01:12:34;;;;;;;15.70;8.80;;;;;;;;;;5013598;28;20621;-68
2022/07/18 01:14:59;;;;;;;14.43;8.52;;;;;;;;;;5017926;28;20807;-68
2022/07/18 01:17:25;;;;;;;13.10;8.82;;;;;;;;;;5033147;28;20184;-69
2022/07/18 01:19:50;;;;;;;14.32;8.90;;;;;;;;;;5026931;28;20178;-69
2022/07/18 01:22:18;;;;;;;13.23;8.60;;;;;;;;;;5013188;28;20190;-69
2022/07/18 01:24:44;;;;;;;14.25;9.13;;;;;;;;;;5012486;28;20244;-69
2022/07/18 01:27:15;;;;;;;13.18;8.00;;;;;;;;;;5031932;28;20224;-69
2022/07/18 01:29:40;;;;;;;14.82;8.90;;;;;;;;;;5025211;28;20279;-69
2022/07/18 01:32:07;;;;;;;14.10;8.93;;;;;;;;;;5029245;28;20201;-69
2022/07/18 01:34:32;;;;;;;15.60;8.68;;;;;;;;;;5031389;28;20182;-69
2022/07/18 01:36:59;;;;;;;13.55;8.18;;;;;;;;;;5032004;28;20735;-68
2022/07/18 01:39:24;;;;;;;14.48;8.85;;;;;;;;;;5030238;28;20186;-69
2022/07/18 01:41:57;;;;;;;17.98;8.77;;;;;;;;;;5029138;28;20285;-69
2022/07/18 01:44:24;;;;;;;14.55;8.93;;;;;;;;;;5024330;28;20202;-69
2022/07/18 01:46:49;;;;;;;12.38;8.70;;;;;;;;;;5029170;28;20178;-68
2022/07/18 01:49:14;;;;;;;15.65;9.05;;;;;;;;;;5027711;28;20174;-69
2022/07/18 01:51:44;;;;;;;19.38;8.75;;;;;;;;;;5020923;28;20198;-70
2022/07/18 01:54:09;;;;;;;14.52;8.95;;;;;;;;;;5032010;28;20700;-68
2022/07/18 01:56:34;;;;;;;17.60;9.50;;;;;;;;;;5019405;28;20214;-69
2022/07/18 01:59:01;;;;;;;13.68;8.27;;;;;;;;;;5031486;28;20185;-68
2022/07/18 02:01:27;;;;;;;13.77;8.38;;;;;;;;;;5019440;28;20671;-69
2022/07/18 02:03:52;;;;;;;14.70;9.68;;;;;;;;;;5028351;28;20833;-69
2022/07/18 02:06:18;;;;;;;14.80;8.80;;;;;;;;;;5033934;28;20645;-69
2022/07/18 02:08:43;;;;;;;16.90;9.25;;;;;;;;;;5031566;28;20208;-69
2022/07/18 02:11:08;;;;;;;14.30;9.32;;;;;;;;;;5031475;28;20185;-69
2022/07/18 02:13:34;;;;;;;13.70;9.02;;;;;;;;;;5025753;28;20560;-69
2022/07/18 02:16:00;;;;;;;16.67;9.27;;;;;;;;;;5026695;28;20579;-69
2022/07/18 02:18:26;;;;;;;15.05;9.73;;;;;;;;;;5037662;28;20191;-69
2022/07/18 02:20:51;;;;;;;15.43;9.88;;;;;;;;;;5035689;28;20178;-69
2022/07/18 02:23:17;;;;;;;18.13;9.43;;;;;;;;;;5023034;28;20240;-69
2022/07/18 02:25:42;;;;;;;14.48;9.85;;;;;;;;;;5036910;28;20606;-69
2022/07/18 02:28:07;;;;;;;16.08;9.63;;;;;;;;;;5023715;28;20315;-69
2022/07/18 02:30:33;;;;;;;15.98;10.07;;;;;;;;;;5037779;28;20264;-68
2022/07/18 02:32:58;;;;;;;14.95;10.13;;;;;;;;;;5028555;28;20293;-69
2022/07/18 02:35:24;;;;;;;18.60;10.50;;;;;;;;;;5029802;28;20244;-69
2022/07/18 02:37:49;;;;;;;15.52;9.43;;;;;;;;;;5028223;28;20207;-69
2022/07/18 02:40:15;;;;;;;19.60;11.10;;;;;;;;;;5028663;28;20182;-69
2022/07/18 02:42:40;;;;;;;15.82;9.90;;;;;;;;;;5030136;28;20186;-69
2022/07/18 02:45:07;;;;;;;15.80;10.02;;;;;;;;;;5029215;28;20182;-68
2022/07/18 02:47:33;;;;;;;19.73;9.93;;;;;;;;;;5027860;28;20486;-69
2022/07/18 02:49:58;;;;;;;16.25;9.50;;;;;;;;;;5029648;28;20166;-69
2022/07/18 02:52:24;;;;;;;16.05;9.43;;;;;;;;;;5036991;28;20321;-69
2022/07/18 02:54:49;;;;;;;19.10;9.85;;;;;;;;;;5027813;28;20170;-68
2022/07/18 02:57:14;;;;;;;18.45;10.02;;;;;;;;;;5018951;28;20186;-68
2022/07/18 02:59:40;;;;;;;15.88;10.07;;;;;;;;;;5022328;28;20181;-68
2022/07/18 03:02:05;;;;;;;14.38;9.57;;;;;;;;;;5015186;28;20270;-69
2022/07/18 03:04:31;;;;;;;15.20;9.32;;;;;;;;;;5031502;28;20472;-70
2022/07/18 03:06:57;;;;;;;17.65;10.43;;;;;;;;;;5032294;28;20198;-69
2022/07/18 03:09:22;;;;;;;15.68;9.75;;;;;;;;;;5041038;28;20178;-69
2022/07/18 03:11:50;;;;;;;15.65;10.40;;;;;;;;;;5025556;28;20241;-68
2022/07/18 03:14:15;;;;;;;17.00;9.73;;;;;;;;;;5023406;28;20189;-69
2022/07/18 03:16:41;;;;;;;16.35;9.98;;;;;;;;;;5020157;28;20274;-68
2022/07/18 03:19:06;;;;;;;16.33;9.98;;;;;;;;;;5023259;28;20185;-69
2022/07/18 03:21:31;;;;;;;15.63;10.25;;;;;;;;;;5021493;28;20687;-69
2022/07/18 03:23:57;;;;;;;16.90;10.82;;;;;;;;;;5026181;28;20186;-70
2022/07/18 03:26:22;;;;;;;18.27;10.38;;;;;;;;;;5024772;28;20277;-69
2022/07/18 03:28:48;;;;;;;16.80;10.00;;;;;;;;;;5030156;28;20660;-69
2022/07/18 03:31:14;;;;;;;19.70;10.43;;;;;;;;;;5025064;28;20253;-69
2022/07/18 03:33:39;;;;;;;13.82;9.10;;;;;;;;;;5032825;28;20644;-69
2022/07/18 03:36:05;;;;;;;14.63;9.38;;;;;;;;;;5033807;28;20176;-69
2022/07/18 03:38:31;;;;;;;16.85;10.57;;;;;;;;;;5032648;28;20285;-70
2022/07/18 03:40:56;;;;;;;14.27;9.27;;;;;;;;;;5020538;28;20179;-69
2022/07/18 03:43:21;;;;;;;18.52;9.57;;;;;;;;;;5030411;28;20174;-69
2022/07/18 03:45:47;;;;;;;21.70;9.73;;;;;;;;;;5034515;28;20260;-70
2022/07/18 03:48:13;;;;;;;15.35;8.85;;;;;;;;;;5011470;28;20596;-69
2022/07/18 03:50:38;;;;;;;15.57;9.13;;;;;;;;;;5026401;28;20202;-69
2022/07/18 03:53:04;;;;;;;14.52;8.77;;;;;;;;;;5033882;28;20228;-70
2022/07/18 03:55:29;;;;;;;14.23;8.88;;;;;;;;;;5026080;28;20296;-70
2022/07/18 03:57:54;;;;;;;13.75;8.93;;;;;;;;;;5025754;28;20422;-70
2022/07/18 04:00:20;;;;;;;16.42;9.23;;;;;;;;;;5031398;28;20178;-69
2022/07/18 04:02:47;;;;;;;15.90;9.32;;;;;;;;;;5026391;28;20181;-70
2022/07/18 04:05:14;;;;;;;14.52;9.02;;;;;;;;;;5027779;28;20182;-69
2022/07/18 04:07:39;;;;;;;16.45;9.00;;;;;;;;;;5018141;28;20226;-69
2022/07/18 04:10:07;;;;;;;14.88;9.00;;;;;;;;;;5029355;28;20666;-69
2022/07/18 04:12:32;;;;;;;14.27;8.95;;;;;;;;;;5038838;28;20202;-69
2022/07/18 04:14:58;;;;;;;17.65;9.05;;;;;;;;;;5037844;28;20196;-70
2022/07/18 04:17:23;;;;;;;15.90;8.45;;;;;;;;;;5019092;28;20182;-70
2022/07/18 04:19:49;;;;;;;18.45;8.88;;;;;;;;;;5037838;28;20189;-69
2022/07/18 04:22:15;;;;;;;14.05;8.82;;;;;;;;;;5029177;28;20563;-70
2022/07/18 04:24:40;;;;;;;15.77;8.73;;;;;;;;;;5017488;28;20185;-68
2022/07/18 04:27:05;;;;;;;14.55;8.50;;;;;;;;;;5035975;28;20178;-68
2022/07/18 04:29:31;;;;;;;16.63;8.20;;;;;;;;;;5030143;28;20264;-69
2022/07/18 04:31:57;;;;;;;15.02;8.35;;;;;;;;;;5022060;28;20566;-68
2022/07/18 04:34:23;;;;;;;13.70;7.35;;;;;;;;;;5027464;28;20261;-69
2022/07/18 04:36:48;;;;;;;12.73;8.15;;;;;;;;;;5028075;28;20268;-69
2022/07/18 04:39:13;;;;;;;17.98;7.45;;;;;;;;;;5019852;28;20178;-69
2022/07/18 04:41:39;;;;;;;16.60;7.53;;;;;;;;;;5021748;28;20182;-69
2022/07/18 04:44:04;;;;;;;14.18;8.30;;;;;;;;;;5020219;28;20256;-69
2022/07/18 04:46:30;;;;;;;10.85;7.07;;;;;;;;;;5022350;28;20257;-69
2022/07/18 04:48:55;;;;;;;11.40;7.65;;;;;;;;;;5013849;28;20181;-69
2022/07/18 04:51:21;;;;;;;12.82;7.45;;;;;;;;;;5048679;28;20212;-70
2022/07/18 04:53:46;;;;;;;10.10;6.90;;;;;;;;;;5027071;28;20623;-70
2022/07/18 04:56:11;;;;;;;12.25;6.93;;;;;;;;;;5020797;28;20182;-70
2022/07/18 04:58:37;;;;;;;11.77;6.82;;;;;;;;;;5020030;28;20266;-69
2022/07/18 05:01:02;;;;;;;9.70;6.30;;;;;;;;;;5032788;28;20192;-69
2022/07/18 05:03:28;;;;;;;11.63;6.40;;;;;;;;;;5022324;28;20689;-70
2022/07/18 05:05:53;;;;;;;9.70;6.78;;;;;;;;;;5030725;28;20197;-70
2022/07/18 05:08:18;;;;;;;9.18;5.97;;;;;;;;;;5034368;28;20178;-71
2022/07/18 05:10:44;;;;;;;11.13;6.63;;;;;;;;;;5024652;28;20725;-70
2022/07/18 05:13:09;;;;;;;10.20;6.25;;;;;;;;;;5015303;28;20634;-69
2022/07/18 05:15:35;;;;;;;8.93;6.60;;;;;;;;;;5025695;28;20229;-70
2022/07/18 05:18:00;;;;;;;10.10;6.15;;;;;;;;;;5022435;28;20204;-69
2022/07/18 05:20:26;;;;;;;11.00;6.00;;;;;;;;;;5031636;28;20181;-72
2022/07/18 05:22:53;;;;;;;8.57;5.68;;;;;;;;;;5032922;28;20212;-68
2022/07/18 05:25:21;;;;;;;9.20;5.70;;;;;;;;;;5037322;28;20239;-69
2022/07/18 05:27:46;;;;;;;10.63;5.30;;;;;;;;;;5027560;28;20201;-70
2022/07/18 05:30:13;;;;;;;9.10;5.03;;;;;;;;;;5031812;28;20721;-70
2022/07/18 05:32:40;;;;;;;10.35;5.18;;;;;;;;;;5022758;28;20229;-69
2022/07/18 05:35:06;;;;;;;10.82;4.90;;;;;;;;;;5023514;28;20175;-70
2022/07/18 05:37:32;;;;;;;7.95;4.70;;;;;;;;;;5016489;28;20268;-70
2022/07/18 05:39:57;;;;;;;8.50;4.32;;;;;;;;;;5019498;28;20328;-70
2022/07/18 05:42:22;;;;;;;5.63;3.88;;;;;;;;;;5024722;28;20599;-70
2022/07/18 05:44:48;;;;;;;7.60;4.53;;;;;;;;;;5024455;28;20212;-70
2022/07/18 05:47:13;;;;;;;6.50;3.92;;;;;;;;;;5025060;28;20190;-70
2022/07/18 05:49:39;;;;;;;8.60;4.60;;;;;;;;;;5018027;28;20182;-70
2022/07/18 05:52:05;;;;;;;6.03;3.97;;;;;;;;;;5023412;28;20179;-70
2022/07/18 05:54:30;;;;;;;5.70;3.90;;;;;;;;;;5020420;28;20186;-69
2022/07/18 05:56:55;;;;;;;6.43;4.00;;;;;;;;;;5024646;28;20186;-69
2022/07/18 05:59:21;;;;;;;9.80;4.53;;;;;;;;;;5027505;28;20265;-69
2022/07/18 06:01:47;;;;;;;7.18;3.83;;;;;;;;;;5026608;28;20257;-70
2022/07/18 06:04:13;;;;;;;8.73;3.83;;;;;;;;;;5027739;28;20205;-69
2022/07/18 06:06:39;;;;;;;7.50;4.15;;;;;;;;;;5035584;28;20182;-69
2022/07/18 06:09:05;;;;;;;6.32;3.95;;;;;;;;;;5024035;28;20264;-69
2022/07/18 06:11:30;;;;;;;7.13;4.10;;;;;;;;;;5027005;28;20182;-69
2022/07/18 06:13:56;;;;;;;7.45;4.05;;;;;;;;;;5022437;28;20241;-70
2022/07/18 06:16:21;;;;;;;7.88;4.10;;;;;;;;;;5027671;28;20224;-70
2022/07/18 06:18:47;;;;;;;12.88;4.25;;;;;;;;;;5028748;28;20182;-70
2022/07/18 06:21:12;;;;;;;8.82;3.97;;;;;;;;;;5032771;28;20258;-70
2022/07/18 06:23:38;;;;;;;9.70;3.63;;;;;;;;;;5029641;28;20205;-70
2022/07/18 06:26:04;;;;;;;5.65;3.53;;;;;;;;;;5023522;28;20178;-70
2022/07/18 06:28:29;;;;;;;8.80;4.07;;;;;;;;;;5038141;28;20419;-70
2022/07/18 06:30:55;;;;;;;9.35;3.28;;;;;;;;;;5029526;28;20948;-69
2022/07/18 06:33:21;;;;;;;6.03;3.00;;;;;;;;;;5020428;28;20962;-70
2022/07/18 06:35:47;;;;;;;6.90;3.25;;;;;;;;;;5032196;28;20205;-70
2022/07/18 06:38:14;;;;;;;5.53;2.75;;;;;;;;;;5029873;28;20198;-70
2022/07/18 06:40:40;;;;;;;6.85;2.65;;;;;;;;;;5015858;28;20194;-70
2022/07/18 06:43:06;;;;;;;4.82;2.72;;;;;;;;;;5038163;28;20264;-70
2022/07/18 06:45:31;;;;;;;6.18;2.70;;;;;;;;;;5034717;28;20185;-70
2022/07/18 06:47:57;;;;;;;8.30;2.65;;;;;;;;;;5018632;28;20187;-70
2022/07/18 06:50:22;;;;;;;5.40;2.75;;;;;;;;;;5029353;28;20189;-70
2022/07/18 06:52:47;;;;;;;4.43;2.25;;;;;;;;;;5040231;28;20244;-70
2022/07/18 06:55:14;;;;;;;6.97;2.30;;;;;;;;;;5021191;28;20290;-70
2022/07/18 06:57:40;;;;;;;7.07;2.50;;;;;;;;;;5033377;28;20185;-70
2022/07/18 07:00:08;;;;;;;6.80;2.05;;;;;;;;;;5037860;28;20590;-69
2022/07/18 07:02:34;;;;;;;6.65;2.00;;;;;;;;;;4327015;28;10000825;-69
2022/07/18 07:04:59;;;;;;;7.40;2.00;;;;;;;;;;5027293;28;20262;-70
2022/07/18 07:07:24;;;;;;;3.40;1.55;;;;;;;;;;5028518;28;20185;-68
2022/07/18 07:09:49;;;;;;;4.30;1.42;;;;;;;;;;5028330;28;20186;-69
2022/07/18 07:12:15;;;;;;;2.17;1.35;;;;;;;;;;5023630;28;20234;-68
2022/07/18 07:14:40;;;;;;;6.07;2.00;;;;;;;;;;5025829;28;20634;-68
2022/07/18 07:17:06;;;;;;;3.10;1.40;;;;;;;;;;5017568;28;20217;-69
2022/07/18 07:19:32;;;;;;;5.35;2.00;;;;;;;;;;5017642;28;20189;-68
2022/07/18 07:21:57;;;;;;;3.08;1.70;;;;;;;;;;5034767;28;20216;-66
2022/07/18 07:24:22;;;;;;;3.03;1.70;;;;;;;;;;5026060;28;20188;-68
2022/07/18 07:26:48;;;;;;;3.65;1.60;;;;;;;;;;5021778;28;20267;-67
2022/07/18 07:29:14;;;;;;;5.25;1.77;;;;;;;;;;5038873;28;20672;-67
2022/07/18 07:31:40;;;;;;;4.75;1.83;;;;;;;;;;5026654;28;20263;-67
2022/07/18 07:34:06;;;;;;;7.10;2.05;;;;;;;;;;5020176;28;20531;-68
2022/07/18 07:36:31;;;;;;;5.57;2.05;;;;;;;;;;5025937;28;20522;-68
2022/07/18 07:38:57;;;;;;;6.18;2.88;;;;;;;;;;5023214;28;20469;-65
2022/07/18 07:41:23;;;;;;;7.07;1.98;;;;;;;;;;5018069;28;20237;-68
2022/07/18 07:43:48;;;;;;;5.95;1.80;;;;;;;;;;5035289;28;20645;-65
2022/07/18 07:46:14;;;;;;;4.70;1.98;;;;;;;;;;5034171;28;20185;-68
2022/07/18 07:48:39;;;;;;;7.88;2.20;;;;;;;;;;5024067;28;20266;-67
2022/07/18 07:51:05;;;;;;;6.63;1.83;;;;;;;;;;5026016;28;20194;-68
2022/07/18 07:53:31;;;;;;;6.18;1.90;;;;;;;;;;5033276;28;20210;-67
2022/07/18 07:55:56;;;;;;;7.50;2.30;;;;;;;;;;5028691;28;20561;-66
2022/07/18 07:58:21;;;;;;;5.53;2.28;;;;;;;;;;5032641;28;20185;-66
2022/07/18 08:00:47;;;;;;;4.35;1.50;;;;;;;;;;5039650;28;20576;-68
2022/07/18 08:03:12;;;;;;;5.50;1.63;;;;;;;;;;5024530;28;20244;-68
2022/07/18 08:05:44;;;;;;;5.47;1.75;;;;;;;;;;5025145;28;20230;-68
2022/07/18 08:08:10;;;;;;;9.75;2.75;;;;;;;;;;5030327;28;20182;-67
2022/07/18 08:10:35;;;;;;;4.15;1.80;;;;;;;;;;5019568;28;20757;-66
2022/07/18 08:13:00;;;;;;;8.88;1.95;;;;;;;;;;5022142;28;20217;-66
2022/07/18 08:15:26;;;;;;;9.90;2.40;;;;;;;;;;5029899;28;20186;-67
2022/07/18 08:17:52;;;;;;;5.88;1.92;;;;;;;;;;5024200;28;20222;-66
2022/07/18 08:20:17;;;;;;;9.02;2.15;;;;;;;;;;5024421;28;20725;-66
2022/07/18 08:23:12;;;;;;;3.22;1.80;;;;;;;;;;5023799;28;20669;-65
2022/07/18 08:25:39;;;;;;;5.53;2.53;;;;;;;;;;5019558;28;20822;-65
2022/07/18 08:28:06;;;;;;;6.85;2.30;;;;;;;;;;5024564;28;20201;-65
2022/07/18 08:30:33;;;;;;;4.30;1.90;;;;;;;;;;5024622;28;20419;-65
2022/07/18 08:33:00;;;;;;;5.38;2.00;;;;;;;;;;5023110;28;20237;-65
2022/07/18 08:35:26;;;;;;;7.88;2.15;;;;;;;;;;5011911;28;20232;-66
2022/07/18 08:37:51;;;;;;;4.53;1.98;;;;;;;;;;5023412;28;20193;-66
2022/07/18 08:40:17;;;;;;;7.55;2.30;;;;;;;;;;5013292;28;20182;-66
2022/07/18 08:42:42;;;;;;;4.88;1.58;;;;;;;;;;5026152;28;20177;-66
2022/07/18 08:45:08;;;;;;;3.58;1.80;;;;;;;;;;5031190;28;20276;-66
2022/07/18 08:47:34;;;;;;;6.47;1.80;;;;;;;;;;5027859;28;20179;-66
2022/07/18 08:50:01;;;;;;;6.32;1.70;;;;;;;;;;5022303;28;20561;-67
2022/07/18 08:52:28;;;;;;;6.25;1.80;;;;;;;;;;5028212;28;20206;-67
2022/07/18 08:54:54;;;;;;;6.07;1.75;;;;;;;;;;5029455;28;20324;-65
2022/07/18 08:57:19;;;;;;;5.70;2.00;;;;;;;;;;5025751;28;20226;-68
2022/07/18 08:59:45;;;;;;;3.00;1.55;;;;;;;;;;5030857;28;20545;-67
2022/07/18 09:02:11;;;;;;;5.30;1.80;;;;;;;;;;5029080;28;20177;-67
2022/07/18 09:04:38;;;;;;;6.25;1.83;;;;;;;;;;5026307;28;20200;-67
2022/07/18 09:07:08;;;;;;;5.82;1.88;;;;;;;;;;5021356;28;20193;-66
2022/07/18 09:09:34;;;;;;;6.13;1.63;;;;;;;;;;5035940;28;20189;-65
2022/07/18 09:12:09;;;;;;;4.55;1.88;;;;;;;;;;5024829;28;20174;-66
2022/07/18 09:14:40;;;;;;;7.15;2.17;;;;;;;;;;5023041;28;20550;-66
2022/07/18 09:17:07;;;;;;;4.85;1.55;;;;;;;;;;5025811;28;20526;-66
2022/07/18 09:19:32;;;;;;;10.85;1.88;;;;;;;;;;5029901;28;20180;-67
2022/07/18 09:22:16;;;;;;;7.72;1.63;;;;;;;;;;5031018;28;20429;-67
2022/07/18 09:25:04;;;;;;;5.50;1.75;;;;;;;;;;5039004;28;20311;-66
2022/07/18 09:27:36;;;;;;;9.95;1.83;;;;;;;;;;5024571;28;20193;-67
2022/07/18 09:30:10;;;;;;;4.05;1.77;;;;;;;;;;5024720;28;20583;-68
2022/07/18 09:32:37;;;;;;;2.88;1.52;;;;;;;;;;5036596;28;20205;-67
2022/07/18 09:35:11;;;;;;;4.50;1.23;;;;;;;;;;5027704;28;20208;-66
2022/07/18 09:37:37;;;;;;;3.15;1.65;;;;;;;;;;5029015;28;20234;-67
2022/07/18 09:40:20;;;;;;;3.33;1.50;;;;;;;;;;5038564;28;20193;-66
2022/07/18 09:42:54;;;;;;;7.15;1.55;;;;;;;;;;5027327;28;20669;-67
2022/07/18 09:45:37;;;;;;;7.50;1.90;;;;;;;;;;5027742;28;20265;-67
2022/07/18 09:48:10;;;;;;;3.65;1.30;;;;;;;;;;5022502;28;20600;-67
2022/07/18 09:50:51;;;;;;;4.90;1.80;;;;;;;;;;5030059;28;20229;-66
2022/07/18 09:53:25;;;;;;;3.60;1.42;;;;;;;;;;5028416;28;20692;-68
2022/07/18 09:55:56;;;;;;;6.07;1.55;;;;;;;;;;5026776;28;20265;-65
2022/07/18 09:58:23;;;;;;;5.68;1.73;;;;;;;;;;5028842;28;20672;-67
2022/07/18 10:00:49;;;;;;;7.93;1.90;;;;;;;;;;5020412;28;20627;-66
2022/07/18 10:03:16;;;;;;;3.30;1.80;;;;;;;;;;5031205;28;20731;-66
2022/07/18 10:05:44;;;;;;;4.82;1.70;;;;;;;;;;5028526;28;20220;-66
2022/07/18 10:08:15;;;;;;;4.43;1.58;;;;;;;;;;5026887;28;20197;-67
2022/07/18 10:10:42;;;;;;;5.45;1.67;;;;;;;;;;5028654;28;20182;-66
2022/07/18 10:13:08;;;;;;;3.70;2.25;;;;;;;;;;5031624;28;20203;-66
2022/07/18 10:15:37;;;;;;;4.82;1.95;;;;;;;;;;5023155;28;20657;-66
2022/07/18 10:18:05;;;;;;;7.25;2.58;;;;;;;;;;5031092;28;20273;-66
2022/07/18 10:20:37;;;;;;;3.08;1.60;;;;;;;;;;5020453;28;20195;-66
2022/07/18 10:23:13;;;;;;;4.65;1.70;;;;;;;;;;5016801;28;20213;-66
2022/07/18 10:25:38;;;;;;;2.35;1.63;;;;;;;;;;5039206;28;20224;-66
2022/07/18 10:28:07;;;;;;;5.68;1.65;;;;;;;;;;5037731;28;20209;-66
2022/07/18 10:30:38;;;;;;;5.03;1.92;;;;;;;;;;5022780;28;20676;-67
2022/07/18 10:33:24;;;;;;;6.00;1.63;;;;;;;;;;5031752;28;20224;-68
2022/07/18 10:36:05;;;;;;;5.15;1.80;;;;;;;;;;5035078;28;20190;-67
2022/07/18 10:38:31;;;;;;;3.08;1.80;;;;;;;;;;5027573;28;20174;-66
2022/07/18 10:41:07;;;;;;;6.30;1.80;;;;;;;;;;5032093;28;20618;-66
2022/07/18 10:43:35;;;;;;;5.82;2.40;;;;;;;;;;5034042;28;20185;-67
2022/07/18 10:46:02;;;;;;;5.40;1.90;;;;;;;;;;5026433;28;20260;-66
2022/07/18 10:48:33;;;;;;;6.97;2.20;;;;;;;;;;5034239;28;20186;-68
2022/07/18 10:51:09;;;;;;;5.07;1.95;;;;;;;;;;5024819;28;20542;-69
2022/07/18 10:54:00;;;;;;;6.82;1.95;;;;;;;;;;5026467;28;20629;-65
2022/07/18 10:56:28;;;;;;;3.67;1.80;;;;;;;;;;5024622;28;20290;-69
2022/07/18 10:59:13;;;;;;;4.68;2.05;;;;;;;;;;5035365;28;20190;-69
2022/07/18 11:01:48;;;;;;;6.10;2.40;;;;;;;;;;5033416;28;20256;-69
2022/07/18 11:04:23;;;;;;;6.15;2.05;;;;;;;;;;5039043;28;20201;-69
2022/07/18 11:07:18;;;;;;;7.32;2.28;;;;;;;;;;4328706;28;10000802;-68
2022/07/18 11:09:47;;;;;;;7.07;2.35;;;;;;;;;;5012587;28;20198;-70
2022/07/18 11:12:33;;;;;;;3.05;2.40;;;;;;;;;;5022261;28;20190;-70
2022/07/18 11:15:03;;;;;;;4.43;2.05;;;;;;;;;;5026528;28;20186;-69
2022/07/18 11:17:54;;;;;;;3.75;2.05;;;;;;;;;;5024475;28;20194;-67
2022/07/18 11:20:32;;;;;;;4.47;2.00;;;;;;;;;;5020415;28;20190;-68
2022/07/18 11:22:58;;;;;;;6.80;2.17;;;;;;;;;;5017856;28;20197;-71
2022/07/18 11:25:28;;;;;;;7.05;2.47;;;;;;;;;;5039024;28;20188;-68
2022/07/18 11:27:54;;;;;;;4.22;2.63;;;;;;;;;;5035499;28;20189;-69
2022/07/18 11:30:21;;;;;;;5.72;2.50;;;;;;;;;;5023414;28;20257;-69
2022/07/18 11:32:47;;;;;;;4.78;2.33;;;;;;;;;;5016515;28;20268;-69
2022/07/18 11:35:13;;;;;;;3.67;2.17;;;;;;;;;;5033467;28;20931;-67
2022/07/18 11:37:46;;;;;;;2.88;2.33;;;;;;;;;;5031589;28;20190;-69
2022/07/18 11:40:13;;;;;;;3.90;2.47;;;;;;;;;;5018495;28;20173;-67
2022/07/18 11:42:39;;;;;;;4.07;2.58;;;;;;;;;;5025673;28;20228;-68
2022/07/18 11:45:07;;;;;;;3.65;2.60;;;;;;;;;;5028521;28;20197;-69
2022/07/18 11:47:52;;;;;;;5.75;2.55;;;;;;;;;;5016310;28;20216;-69
2022/07/18 11:50:26;;;;;;;3.55;3.10;;;;;;;;;;5027793;28;20442;-68
2022/07/18 11:52:57;;;;;;;4.47;2.80;;;;;;;;;;5023364;28;20283;-69
2022/07/18 11:55:36;;;;;;;5.05;2.75;;;;;;;;;;5022125;28;20185;-70
2022/07/18 11:58:12;;;;;;;4.28;2.92;;;;;;;;;;5033364;28;20187;-68
2022/07/18 12:00:38;;;;;;;6.18;2.88;;;;;;;;;;5027855;28;20177;-70
2022/07/18 12:03:13;;;;;;;3.75;2.33;;;;;;;;;;5026262;28;20187;-65
2022/07/18 12:05:44;;;;;;;3.33;2.70;;;;;;;;;;5027443;28;20199;-67
2022/07/18 12:08:36;;;;;;;6.00;2.70;;;;;;;;;;5027104;28;20178;-71
2022/07/18 12:11:32;;;;;;;4.15;2.13;;;;;;;;;;5028869;28;20655;-69
2022/07/18 12:14:16;;;;;;;6.70;2.47;;;;;;;;;;5015016;28;20201;-68
2022/07/18 12:16:56;;;;;;;7.13;2.58;;;;;;;;;;5029731;28;20209;-68
2022/07/18 12:19:31;;;;;;;4.72;2.25;;;;;;;;;;5039684;28;20260;-64
2022/07/18 12:22:03;;;;;;;2.60;2.00;;;;;;;;;;5021928;28;20182;-67
2022/07/18 12:24:49;;;;;;;2.58;2.08;;;;;;;;;;5031080;28;20178;-65
2022/07/18 12:27:23;;;;;;;2.83;2.20;;;;;;;;;;5031146;28;20185;-65
2022/07/18 12:30:04;;;;;;;5.38;2.50;;;;;;;;;;5023346;28;20242;-69
2022/07/18 12:32:40;;;;;;;4.47;2.20;;;;;;;;;;5019605;28;20272;-69
2022/07/18 12:35:27;;;;;;;4.95;2.42;;;;;;;;;;5032113;28;20616;-69
2022/07/18 12:38:16;;;;;;;4.93;2.38;;;;;;;;;;5017319;28;20225;-66
2022/07/18 12:40:59;;;;;;;4.78;2.17;;;;;;;;;;5025497;28;20185;-65
2022/07/18 12:43:35;;;;;;;6.00;2.63;;;;;;;;;;5033652;28;20695;-68
2022/07/18 12:46:05;;;;;;;4.25;2.63;;;;;;;;;;5020264;28;20178;-67
2022/07/18 12:48:32;;;;;;;3.83;2.50;;;;;;;;;;5032539;28;20177;-67
2022/07/18 12:51:05;;;;;;;3.53;2.22;;;;;;;;;;5029441;28;20990;-66
2022/07/18 12:53:33;;;;;;;3.28;2.30;;;;;;;;;;5021305;28;20213;-69
2022/07/18 12:55:58;;;;;;;2.42;2.17;;;;;;;;;;5022462;28;20569;-68
2022/07/18 12:58:24;;;;;;;4.18;1.92;;;;;;;;;;5031400;28;20653;-65
2022/07/18 13:00:50;;;;;;;4.97;2.42;;;;;;;;;;5022426;28;20699;-66
2022/07/18 13:03:16;;;;;;;4.00;2.28;;;;;;;;;;5023442;28;20609;-65
2022/07/18 13:05:41;;;;;;;6.18;2.22;;;;;;;;;;5038669;28;20195;-65
2022/07/18 13:08:08;;;;;;;3.15;1.80;;;;;;;;;;5030289;28;20886;-66
2022/07/18 13:10:34;;;;;;;3.60;2.13;;;;;;;;;;5025806;28;20450;-65
2022/07/18 13:13:04;;;;;;;3.28;1.70;;;;;;;;;;5029955;28;20828;-67
2022/07/18 13:15:30;;;;;;;3.38;2.17;;;;;;;;;;5030870;28;20656;-66
2022/07/18 13:17:56;;;;;;;4.10;1.95;;;;;;;;;;5023996;28;20189;-68
2022/07/18 13:20:22;;;;;;;4.20;1.85;;;;;;;;;;5047073;28;20263;-69
2022/07/18 13:22:48;;;;;;;3.58;2.10;;;;;;;;;;5034260;28;20173;-65
2022/07/18 13:25:13;;;;;;;4.50;2.13;;;;;;;;;;5020000;28;20499;-66
2022/07/18 13:27:39;;;;;;;4.35;2.28;;;;;;;;;;5038360;28;20258;-66
2022/07/18 13:30:07;;;;;;;3.85;2.22;;;;;;;;;;5034013;28;20316;-65
2022/07/18 13:32:32;;;;;;;3.53;2.03;;;;;;;;;;5029360;28;20289;-67
2022/07/18 13:34:58;;;;;;;3.05;2.28;;;;;;;;;;5040339;28;20783;-67
2022/07/18 13:37:24;;;;;;;3.17;2.17;;;;;;;;;;5032966;28;20232;-66
2022/07/18 13:39:49;;;;;;;5.30;2.08;;;;;;;;;;5029329;28;20261;-67
2022/07/18 13:42:15;;;;;;;2.83;1.83;;;;;;;;;;5030713;28;20559;-67
2022/07/18 13:44:51;;;;;;;5.90;2.00;;;;;;;;;;4745585;28;10000620;-68
2022/07/18 13:47:17;;;;;;;3.92;2.30;;;;;;;;;;5019360;28;20765;-68
2022/07/18 13:49:42;;;;;;;3.13;2.05;;;;;;;;;;5028369;28;20177;-67
2022/07/18 13:52:08;;;;;;;2.92;1.88;;;;;;;;;;5021879;28;20197;-66
2022/07/18 13:54:33;;;;;;;4.60;2.00;;;;;;;;;;5034603;28;20207;-67
2022/07/18 13:56:59;;;;;;;4.95;1.70;;;;;;;;;;5026602;28;20656;-66
2022/07/18 13:59:24;;;;;;;4.05;1.92;;;;;;;;;;5027696;28;20678;-67
2022/07/18 14:01:49;;;;;;;2.85;2.10;;;;;;;;;;5026212;28;20255;-67
2022/07/18 14:04:16;;;;;;;4.18;2.10;;;;;;;;;;5025021;28;20754;-67
2022/07/18 14:06:41;;;;;;;3.42;2.13;;;;;;;;;;5026616;28;20551;-66
2022/07/18 14:09:06;;;;;;;2.33;1.77;;;;;;;;;;5030966;28;20735;-67
2022/07/18 14:11:32;;;;;;;3.30;1.75;;;;;;;;;;5026671;28;20653;-68
2022/07/18 14:14:01;;;;;;;2.38;1.75;;;;;;;;;;5023415;28;20207;-68
2022/07/18 14:16:28;;;;;;;4.88;1.80;;;;;;;;;;5033759;28;20186;-67
2022/07/18 14:18:53;;;;;;;5.68;1.88;;;;;;;;;;5029647;28;20194;-67
2022/07/18 14:21:18;;;;;;;2.75;1.75;;;;;;;;;;5023530;28;20186;-68
2022/07/18 14:23:44;;;;;;;4.85;1.90;;;;;;;;;;5038484;28;20648;-67
2022/07/18 14:26:09;;;;;;;3.53;1.73;;;;;;;;;;5023212;28;20186;-66
2022/07/18 14:28:35;;;;;;;3.47;1.85;;;;;;;;;;5021004;28;20186;-67
2022/07/18 14:31:00;;;;;;;2.70;1.80;;;;;;;;;;5036667;28;20358;-67
2022/07/18 14:33:25;;;;;;;2.70;2.03;;;;;;;;;;5028780;28;20609;-67
2022/07/18 14:35:51;;;;;;;3.10;1.85;;;;;;;;;;5030577;28;20445;-68
2022/07/18 14:38:16;;;;;;;2.17;1.83;;;;;;;;;;5035658;28;20193;-66
2022/07/18 14:40:41;;;;;;;5.45;1.90;;;;;;;;;;5034653;28;20879;-66
2022/07/18 14:43:07;;;;;;;6.10;2.35;;;;;;;;;;5022423;28;20182;-66
2022/07/18 14:45:32;;;;;;;3.50;1.80;;;;;;;;;;5035093;28;20244;-66